createdAt,value
2024-02-22T00:02:23.156Z,8.03
2024-02-22T00:07:26.146Z,8.23
2024-02-22T00:12:29.000Z,7.97
2024-02-22T00:17:32.698Z,7.87
2024-02-22T00:22:35.776Z,7.83
2024-02-22T00:27:40.130Z,7.13
2024-02-22T00:32:44.251Z,7.17
2024-02-22T00:37:47.271Z,5.90
2024-02-22T00:42:50.470Z,6.07
2024-02-22T00:47:53.585Z,5.17
2024-02-22T00:52:59.061Z,5.93
2024-02-22T00:58:01.868Z,5.97
2024-02-22T01:03:06.395Z,5.80
2024-02-22T01:08:09.601Z,7.83
2024-02-22T01:13:12.720Z,7.40
2024-02-22T01:18:16.153Z,7.23
2024-02-22T01:23:19.156Z,6.97
2024-02-22T01:28:22.649Z,5.63
2024-02-22T01:33:25.560Z,6.53
2024-02-22T01:38:28.441Z,5.37
2024-02-22T01:43:31.596Z,6.87
2024-02-22T01:48:35.074Z,6.63
2024-02-22T01:53:38.358Z,5.73
2024-02-22T01:58:41.981Z,6.37
2024-02-22T02:03:44.944Z,6.90
2024-02-22T02:08:49.012Z,6.30
2024-02-22T02:13:52.123Z,7.30
2024-02-22T02:18:56.208Z,7.10
2024-02-22T02:24:27.351Z,7.67
2024-02-22T02:29:30.210Z,7.53
2024-02-22T02:34:34.401Z,8.50
2024-02-22T02:39:37.149Z,8.23
2024-02-22T02:44:40.082Z,9.43
2024-02-22T02:49:43.223Z,7.50
2024-02-22T02:54:46.199Z,9.57
2024-02-22T02:59:49.052Z,10.23
2024-02-22T03:04:52.063Z,10.40
2024-02-22T03:09:55.584Z,8.83
2024-02-22T03:14:58.539Z,8.50
2024-02-22T03:20:01.531Z,10.23
2024-02-22T03:25:06.492Z,9.30
2024-02-22T03:30:10.409Z,9.37
2024-02-22T03:35:13.469Z,8.97
2024-02-22T03:40:16.682Z,9.70
2024-02-22T03:45:19.767Z,9.60
2024-02-22T03:50:22.791Z,8.50
2024-02-22T03:55:25.694Z,9.77
2024-02-22T04:00:28.866Z,9.33
2024-02-22T04:05:32.473Z,9.80
2024-02-22T04:10:35.533Z,9.27
2024-02-22T04:15:38.795Z,10.00
2024-02-22T04:20:42.015Z,10.13
2024-02-22T04:25:45.823Z,9.07
2024-02-22T04:30:49.456Z,9.97
2024-02-22T04:35:52.466Z,10.47
2024-02-22T04:40:55.501Z,10.83
2024-02-22T04:45:58.402Z,9.80
2024-02-22T04:51:01.539Z,9.67
2024-02-22T04:56:04.877Z,9.47
2024-02-22T05:01:07.782Z,9.13
2024-02-22T05:06:11.246Z,9.20
2024-02-22T05:11:14.281Z,10.33
2024-02-22T05:16:17.568Z,8.87
2024-02-22T05:21:20.551Z,7.97
2024-02-22T05:26:23.601Z,9.30
2024-02-22T05:31:29.983Z,9.10
2024-02-22T05:36:34.052Z,7.67
2024-02-22T05:41:38.354Z,9.80
2024-02-22T05:46:41.338Z,9.27
2024-02-22T05:51:44.316Z,8.90
2024-02-22T05:56:47.464Z,8.97
2024-02-22T06:01:51.298Z,8.90
2024-02-22T06:06:54.333Z,8.83
2024-02-22T06:11:57.390Z,8.97
2024-02-22T06:17:01.355Z,10.47
2024-02-22T06:22:04.642Z,12.00
2024-02-22T06:27:07.683Z,8.87
2024-02-22T06:32:10.648Z,8.83
2024-02-22T06:37:13.767Z,8.47
2024-02-22T06:42:16.726Z,8.60
2024-02-22T06:47:19.813Z,7.63
2024-02-22T06:52:24.285Z,7.67
2024-02-22T06:57:27.149Z,8.27
2024-02-22T07:02:29.969Z,8.37
2024-02-22T07:07:32.937Z,8.40
2024-02-22T07:12:35.927Z,7.83
2024-02-22T07:17:39.239Z,7.50
2024-02-22T07:22:46.808Z,7.80
2024-02-22T07:27:52.324Z,7.23
2024-02-22T07:32:55.638Z,7.77
2024-02-22T07:37:59.199Z,7.23
2024-02-22T07:43:02.498Z,7.57
2024-02-22T07:48:10.700Z,7.93
2024-02-22T07:53:14.116Z,6.57
2024-02-22T07:58:19.166Z,8.37
2024-02-22T08:03:22.905Z,7.83
2024-02-22T08:08:25.866Z,7.67
2024-02-22T08:13:29.222Z,6.70
2024-02-22T08:18:32.190Z,6.53
2024-02-22T08:23:35.774Z,6.80
2024-02-22T08:28:38.962Z,6.03
2024-02-22T08:33:42.809Z,6.47
2024-02-22T08:38:45.788Z,6.50
2024-02-22T08:43:48.823Z,6.97
2024-02-22T08:48:52.081Z,7.07
2024-02-22T08:53:55.304Z,6.37
2024-02-22T08:58:59.407Z,6.23
2024-02-22T09:04:02.559Z,6.67
2024-02-22T09:09:08.779Z,5.30
2024-02-22T09:14:12.140Z,5.03
2024-02-22T09:19:15.230Z,4.77
2024-02-22T09:24:18.293Z,4.63
2024-02-22T09:29:21.253Z,3.67
2024-02-22T09:34:27.522Z,4.17
2024-02-22T09:39:45.060Z,4.07
2024-02-22T09:44:48.143Z,3.30
2024-02-22T09:49:51.256Z,3.17
2024-02-22T09:54:54.403Z,3.33
2024-02-22T09:59:57.416Z,3.87
2024-02-22T10:05:01.965Z,4.00
2024-02-22T10:10:05.656Z,3.90
2024-02-22T10:15:12.601Z,3.20
2024-02-22T10:20:15.548Z,3.53
2024-02-22T10:25:18.835Z,2.57
2024-02-22T10:30:27.899Z,3.77
2024-02-22T10:35:35.680Z,3.13
2024-02-22T10:40:38.997Z,3.27
2024-02-22T10:45:42.909Z,3.37
2024-02-22T10:50:46.242Z,3.03
2024-02-22T10:55:53.357Z,3.60
2024-02-22T11:00:57.707Z,3.30
2024-02-22T11:06:05.378Z,3.63
2024-02-22T11:11:09.712Z,2.57
2024-02-22T11:16:18.625Z,2.30
2024-02-22T11:21:22.868Z,2.77
2024-02-22T11:26:25.687Z,2.17
2024-02-22T11:31:28.927Z,3.20
2024-02-22T11:36:32.383Z,2.20
2024-02-22T11:41:35.378Z,1.97
2024-02-22T11:46:39.559Z,2.00
2024-02-22T11:57:23.626Z,2.20
2024-02-22T12:02:27.176Z,3.27
2024-02-22T12:07:31.130Z,3.43
2024-02-22T12:12:34.193Z,2.60
2024-02-22T12:17:38.365Z,2.47
2024-02-22T12:22:49.049Z,2.60
2024-02-22T12:27:54.103Z,2.47
2024-02-22T12:32:57.514Z,2.33
2024-02-22T12:38:02.023Z,2.30
2024-02-22T12:43:05.422Z,2.77
2024-02-22T12:48:09.146Z,2.70
2024-02-22T12:53:15.564Z,2.67
2024-02-22T12:58:18.814Z,2.60
2024-02-22T13:03:25.609Z,2.80
2024-02-22T13:08:31.136Z,2.50
2024-02-22T13:13:35.254Z,2.60
2024-02-22T13:18:39.139Z,2.33
2024-02-22T13:23:42.541Z,2.60
2024-02-22T13:28:47.494Z,2.93
2024-02-22T13:33:51.985Z,2.50
2024-02-22T13:38:55.386Z,3.07
2024-02-22T13:43:58.571Z,3.03
2024-02-22T13:49:01.572Z,4.13
2024-02-22T13:54:05.043Z,3.67
2024-02-22T13:59:08.472Z,3.83
2024-02-22T14:04:11.731Z,3.67
2024-02-22T14:09:18.296Z,3.93
2024-02-22T14:14:21.364Z,2.90
2024-02-22T14:19:25.288Z,4.97
2024-02-22T14:24:28.610Z,4.30
2024-02-22T14:29:31.386Z,2.93
2024-02-22T14:34:35.747Z,4.37
2024-02-22T14:39:39.039Z,4.83
2024-02-22T14:44:43.868Z,4.60
2024-02-22T14:49:47.259Z,4.50
2024-02-22T14:54:50.344Z,4.43
2024-02-22T14:59:53.279Z,4.93
2024-02-22T15:04:56.286Z,7.10
2024-02-22T15:09:59.457Z,5.47
2024-02-22T15:15:03.996Z,6.70
2024-02-22T15:20:09.000Z,5.50
2024-02-22T15:25:14.904Z,4.67
2024-02-22T15:30:18.268Z,4.20
2024-02-22T15:35:23.020Z,5.50
2024-02-22T15:40:25.984Z,5.40
2024-02-22T15:45:29.902Z,6.30
2024-02-22T15:50:32.926Z,5.67
2024-02-22T15:55:37.419Z,5.47
2024-02-22T16:00:42.628Z,6.97
2024-02-22T16:05:45.939Z,5.10
2024-02-22T16:10:49.499Z,6.63
2024-02-22T16:15:55.043Z,6.87
2024-02-22T16:20:58.759Z,7.77
2024-02-22T16:26:02.232Z,6.63
2024-02-22T16:31:05.994Z,6.30
2024-02-22T16:36:09.554Z,5.93
2024-02-22T16:41:28.486Z,5.73
2024-02-22T16:46:31.614Z,6.50
2024-02-22T16:51:36.608Z,5.27
2024-02-22T16:56:44.002Z,5.93
2024-02-22T17:01:47.350Z,6.20
2024-02-22T17:06:51.138Z,5.90
2024-02-22T17:11:55.902Z,6.30
2024-02-22T17:17:00.071Z,6.57
2024-02-22T17:22:03.312Z,5.80
2024-02-22T17:27:08.673Z,4.03
2024-02-22T17:32:12.878Z,6.97
2024-02-22T17:37:16.920Z,6.83
2024-02-22T17:42:21.319Z,6.13
2024-02-22T17:47:27.452Z,4.53
2024-02-22T17:52:31.000Z,6.00
2024-02-22T17:57:35.170Z,6.50
2024-02-22T18:02:39.496Z,7.97
2024-02-22T18:07:43.611Z,7.07
2024-02-22T18:12:50.857Z,4.53
2024-02-22T18:17:55.762Z,7.30
2024-02-22T18:23:00.115Z,7.17
2024-02-22T18:28:07.409Z,3.40
2024-02-22T18:33:11.788Z,6.63
2024-02-22T18:38:16.288Z,5.03
2024-02-22T18:43:20.968Z,6.93
2024-02-22T18:48:24.927Z,5.77
2024-02-22T18:53:29.980Z,7.07
2024-02-22T18:58:36.723Z,6.87
2024-02-22T19:03:42.744Z,5.80
2024-02-22T19:08:47.703Z,7.67
2024-02-22T19:13:52.342Z,6.03
2024-02-22T19:18:58.265Z,5.60
2024-02-22T19:24:02.109Z,6.53
2024-02-22T19:29:06.639Z,6.33
2024-02-22T19:34:10.948Z,7.27
2024-02-22T19:39:16.240Z,8.07
2024-02-22T19:44:24.341Z,5.30
2024-02-22T19:49:30.146Z,6.57
2024-02-22T19:54:36.015Z,7.63
2024-02-22T19:59:40.230Z,7.60
2024-02-22T20:04:45.428Z,7.70
2024-02-22T20:09:50.057Z,7.40
2024-02-22T20:14:54.575Z,6.17
2024-02-22T20:19:59.261Z,6.77
2024-02-22T20:25:06.587Z,7.10
2024-02-22T20:30:15.138Z,7.17
2024-02-22T20:35:25.922Z,6.83
2024-02-22T20:40:35.237Z,5.97
2024-02-22T20:45:42.270Z,6.43
2024-02-22T20:50:46.982Z,6.87
2024-02-22T20:55:52.885Z,8.00
2024-02-22T21:00:58.240Z,6.37
2024-02-22T21:06:02.744Z,7.47
2024-02-22T21:11:09.811Z,7.90
2024-02-22T21:16:15.161Z,6.83
2024-02-22T21:21:22.438Z,7.20
2024-02-22T21:26:26.820Z,7.20
2024-02-22T21:31:31.951Z,7.83
2024-02-22T21:36:36.128Z,12.07
2024-02-22T21:41:40.268Z,12.73
2024-02-22T21:46:44.220Z,6.60
2024-02-22T21:51:48.689Z,7.03
2024-02-22T21:56:52.673Z,7.90
2024-02-22T22:01:55.859Z,6.97
2024-02-22T22:06:58.892Z,7.87
2024-02-22T22:12:02.078Z,6.73
2024-02-22T22:17:05.737Z,5.27
2024-02-22T22:22:08.979Z,5.30
2024-02-22T22:27:12.654Z,7.37
2024-02-22T22:32:15.861Z,8.07
2024-02-22T22:37:21.133Z,5.97
2024-02-22T22:42:24.497Z,7.10
2024-02-22T22:47:27.424Z,6.33
2024-02-22T22:52:30.836Z,6.43
2024-02-22T22:57:34.516Z,5.83
2024-02-22T23:02:37.770Z,6.03
2024-02-22T23:07:41.084Z,6.40
2024-02-22T23:12:44.178Z,4.07
2024-02-22T23:17:47.349Z,6.37
2024-02-22T23:22:50.345Z,5.63
2024-02-22T23:27:53.481Z,6.83
2024-02-22T23:32:56.569Z,6.10
2024-02-22T23:37:59.841Z,6.37
2024-02-22T23:43:04.565Z,7.20
2024-02-22T23:48:08.223Z,4.10
2024-02-22T23:53:11.430Z,5.07
2024-02-22T23:58:14.388Z,6.40
